sensor_id;sensor_type;location;lat;lon;timestamp;pressure;altitude;pressure_sealevel;temperature;humidity
63339;BME280;47485;51.378;-1.342;2022-07-03T00:01:50;100473.68;;;12.12;33.88
63339;BME280;47485;51.378;-1.342;2022-07-03T00:04:17;100473.49;;;12.00;33.76
63339;BME280;47485;51.378;-1.342;2022-07-03T00:06:45;100471.24;;;13.64;32.94
63339;BME280;47485;51.378;-1.342;2022-07-03T00:09:12;100469.64;;;14.52;32.10
63339;BME280;47485;51.378;-1.342;2022-07-03T00:11:39;100473.55;;;13.72;32.31
63339;BME280;47485;51.378;-1.342;2022-07-03T00:14:06;100475.60;;;13.67;32.47
63339;BME280;47485;51.378;-1.342;2022-07-03T00:16:33;100472.69;;;12.70;32.72
63339;BME280;47485;51.378;-1.342;2022-07-03T00:18:59;100471.89;;;12.53;34.31
63339;BME280;47485;51.378;-1.342;2022-07-03T00:21:29;100475.57;;;12.72;35.10
63339;BME280;47485;51.378;-1.342;2022-07-03T00:24:00;100473.67;;;11.04;35.97
63339;BME280;47485;51.378;-1.342;2022-07-03T00:26:33;100470.60;;;12.86;35.16
63339;BME280;47485;51.378;-1.342;2022-07-03T00:29:02;100464.17;;;9.57;35.79
63339;BME280;47485;51.378;-1.342;2022-07-03T00:31:30;100463.33;;;12.36;32.90
63339;BME280;47485;51.378;-1.342;2022-07-03T00:33:59;100461.29;;;14.10;31.71
63339;BME280;47485;51.378;-1.342;2022-07-03T00:36:30;100458.21;;;13.15;31.15
63339;BME280;47485;51.378;-1.342;2022-07-03T00:39:00;100456.14;;;13.09;30.45
63339;BME280;47485;51.378;-1.342;2022-07-03T00:41:28;100454.26;;;10.92;31.64
63339;BME280;47485;51.378;-1.342;2022-07-03T00:43:56;100453.83;;;11.73;30.74
63339;BME280;47485;51.378;-1.342;2022-07-03T00:46:25;100451.53;;;13.24;29.48
63339;BME280;47485;51.378;-1.342;2022-07-03T00:48:54;100452.49;;;11.64;29.91
63339;BME280;47485;51.378;-1.342;2022-07-03T00:51:23;100452.37;;;12.80;29.10
63339;BME280;47485;51.378;-1.342;2022-07-03T00:53:53;100458.90;;;13.31;28.20
63339;BME280;47485;51.378;-1.342;2022-07-03T00:56:23;100456.43;;;14.66;26.89
63339;BME280;47485;51.378;-1.342;2022-07-03T00:58:53;100454.57;;;13.74;28.07
63339;BME280;47485;51.378;-1.342;2022-07-03T01:01:23;100457.97;;;14.82;26.64
63339;BME280;47485;51.378;-1.342;2022-07-03T01:04:06;100458.07;;;13.87;26.27
63339;BME280;47485;51.378;-1.342;2022-07-03T01:06:40;100461.68;;;16.00;25.92
63339;BME280;47485;51.378;-1.342;2022-07-03T01:09:06;100467.07;;;15.49;27.14
63339;BME280;47485;51.378;-1.342;2022-07-03T01:11:38;100467.14;;;16.83;26.44
63339;BME280;47485;51.378;-1.342;2022-07-03T01:14:15;100468.30;;;16.48;26.36
63339;BME280;47485;51.378;-1.342;2022-07-03T01:16:53;100470.86;;;15.57;27.60
63339;BME280;47485;51.378;-1.342;2022-07-03T01:19:35;100471.96;;;15.80;27.76
63339;BME280;47485;51.378;-1.342;2022-07-03T01:22:20;100471.67;;;13.88;28.69
63339;BME280;47485;51.378;-1.342;2022-07-03T01:25:03;100470.00;;;13.71;29.24
63339;BME280;47485;51.378;-1.342;2022-07-03T01:27:48;100464.95;;;14.99;27.59
63339;BME280;47485;51.378;-1.342;2022-07-03T01:30:19;100469.39;;;16.53;27.79
63339;BME280;47485;51.378;-1.342;2022-07-03T01:32:51;100472.23;;;14.83;28.43
63339;BME280;47485;51.378;-1.342;2022-07-03T01:35:26;100473.99;;;14.87;29.18
63339;BME280;47485;51.378;-1.342;2022-07-03T01:37:54;100471.56;;;14.73;28.96
63339;BME280;47485;51.378;-1.342;2022-07-03T01:40:23;100475.77;;;13.72;28.98
63339;BME280;47485;51.378;-1.342;2022-07-03T01:42:52;100477.09;;;13.17;28.97
63339;BME280;47485;51.378;-1.342;2022-07-03T01:45:19;100477.73;;;10.75;31.03
63339;BME280;47485;51.378;-1.342;2022-07-03T01:47:47;100481.47;;;12.85;29.46
63339;BME280;47485;51.378;-1.342;2022-07-03T01:50:15;100482.97;;;11.60;29.89
63339;BME280;47485;51.378;-1.342;2022-07-03T01:52:43;100476.76;;;14.43;27.61
63339;BME280;47485;51.378;-1.342;2022-07-03T01:55:12;100478.88;;;12.52;28.99
63339;BME280;47485;51.378;-1.342;2022-07-03T01:57:43;100475.59;;;11.75;28.80
63339;BME280;47485;51.378;-1.342;2022-07-03T02:00:11;100471.66;;;12.48;29.44
63339;BME280;47485;51.378;-1.342;2022-07-03T02:02:42;100465.73;;;14.56;26.76
63339;BME280;47485;51.378;-1.342;2022-07-03T02:05:15;100469.06;;;13.60;27.55
63339;BME280;47485;51.378;-1.342;2022-07-03T02:07:52;100467.00;;;12.49;28.39
63339;BME280;47485;51.378;-1.342;2022-07-03T02:10:27;100462.26;;;13.65;27.90
63339;BME280;47485;51.378;-1.342;2022-07-03T02:13:02;100465.19;;;12.26;27.54
63339;BME280;47485;51.378;-1.342;2022-07-03T02:15:34;100463.95;;;13.81;27.39
63339;BME280;47485;51.378;-1.342;2022-07-03T02:18:09;100464.15;;;13.30;28.61
63339;BME280;47485;51.378;-1.342;2022-07-03T02:20:39;100464.20;;;13.52;27.72
63339;BME280;47485;51.378;-1.342;2022-07-03T02:23:13;100469.52;;;13.31;28.50
63339;BME280;47485;51.378;-1.342;2022-07-03T02:25:44;100466.66;;;12.38;28.69
63339;BME280;47485;51.378;-1.342;2022-07-03T02:28:22;100465.60;;;13.11;27.90
63339;BME280;47485;51.378;-1.342;2022-07-03T02:30:55;100465.33;;;15.22;26.23
63339;BME280;47485;51.378;-1.342;2022-07-03T02:33:25;100461.94;;;16.20;26.42
63339;BME280;47485;51.378;-1.342;2022-07-03T02:35:55;100462.88;;;15.05;27.29
63339;BME280;47485;51.378;-1.342;2022-07-03T02:38:23;100460.30;;;13.06;28.31
63339;BME280;47485;51.378;-1.342;2022-07-03T02:40:57;100453.31;;;15.68;26.68
63339;BME280;47485;51.378;-1.342;2022-07-03T02:43:36;100454.96;;;15.96;27.41
63339;BME280;47485;51.378;-1.342;2022-07-03T02:46:07;100465.06;;;15.78;28.74
63339;BME280;47485;51.378;-1.342;2022-07-03T02:48:42;100466.83;;;12.23;30.59
63339;BME280;47485;51.378;-1.342;2022-07-03T02:51:20;100466.00;;;13.09;29.94
63339;BME280;47485;51.378;-1.342;2022-07-03T02:53:53;100468.98;;;13.20;29.13
63339;BME280;47485;51.378;-1.342;2022-07-03T02:56:30;100476.10;;;15.18;28.39
63339;BME280;47485;51.378;-1.342;2022-07-03T02:59:04;100475.50;;;12.65;30.00
63339;BME280;47485;51.378;-1.342;2022-07-03T03:01:41;100476.61;;;14.11;28.68
63339;BME280;47485;51.378;-1.342;2022-07-03T03:04:20;100474.47;;;14.38;27.84
63339;BME280;47485;51.378;-1.342;2022-07-03T03:06:55;100477.25;;;14.84;28.47
63339;BME280;47485;51.378;-1.342;2022-07-03T03:09:26;100477.51;;;15.10;29.41
63339;BME280;47485;51.378;-1.342;2022-07-03T03:11:56;100474.06;;;13.58;30.26
63339;BME280;47485;51.378;-1.342;2022-07-03T03:14:30;100472.36;;;13.76;30.83
63339;BME280;47485;51.378;-1.342;2022-07-03T03:17:05;100467.41;;;12.97;31.40
63339;BME280;47485;51.378;-1.342;2022-07-03T03:19:39;100467.97;;;14.32;30.34
63339;BME280;47485;51.378;-1.342;2022-07-03T03:22:16;100470.45;;;12.96;29.72
63339;BME280;47485;51.378;-1.342;2022-07-03T03:24:46;100470.50;;;14.62;28.56
63339;BME280;47485;51.378;-1.342;2022-07-03T03:27:13;100466.91;;;14.27;28.39
63339;BME280;47485;51.378;-1.342;2022-07-03T03:29:41;100467.40;;;13.96;28.48
63339;BME280;47485;51.378;-1.342;2022-07-03T03:32:08;100468.09;;;13.24;29.11
63339;BME280;47485;51.378;-1.342;2022-07-03T03:34:38;100470.61;;;13.17;29.41
63339;BME280;47485;51.378;-1.342;2022-07-03T03:37:05;100471.81;;;13.41;28.66
63339;BME280;47485;51.378;-1.342;2022-07-03T03:39:32;100473.78;;;11.59;29.85
63339;BME280;47485;51.378;-1.342;2022-07-03T03:42:00;100471.16;;;11.48;30.06
63339;BME280;47485;51.378;-1.342;2022-07-03T03:44:27;100468.22;;;12.79;28.59
63339;BME280;47485;51.378;-1.342;2022-07-03T03:46:54;100469.04;;;12.43;27.51
63339;BME280;47485;51.378;-1.342;2022-07-03T03:49:22;100467.74;;;12.52;26.93
63339;BME280;47485;51.378;-1.342;2022-07-03T03:51:50;100469.04;;;14.43;26.19
63339;BME280;47485;51.378;-1.342;2022-07-03T03:54:18;100473.86;;;14.79;26.22
63339;BME280;47485;51.378;-1.342;2022-07-03T03:56:45;100475.02;;;13.82;26.80
63339;BME280;47485;51.378;-1.342;2022-07-03T03:59:12;100476.01;;;15.05;26.74
63339;BME280;47485;51.378;-1.342;2022-07-03T04:01:39;100471.88;;;13.33;27.06
63339;BME280;47485;51.378;-1.342;2022-07-03T04:04:05;100476.33;;;13.63;27.63
63339;BME280;47485;51.378;-1.342;2022-07-03T04:06:32;100476.73;;;13.56;27.86
63339;BME280;47485;51.378;-1.342;2022-07-03T04:08:59;100481.19;;;13.93;27.94
63339;BME280;47485;51.378;-1.342;2022-07-03T04:11:26;100478.29;;;13.98;27.66
63339;BME280;47485;51.378;-1.342;2022-07-03T04:13:53;100469.83;;;14.52;26.45
63339;BME280;47485;51.378;-1.342;2022-07-03T04:16:20;100469.88;;;14.69;26.72
63339;BME280;47485;51.378;-1.342;2022-07-03T04:18:47;100474.67;;;13.84;27.73
63339;BME280;47485;51.378;-1.342;2022-07-03T04:21:14;100473.85;;;13.60;27.65
63339;BME280;47485;51.378;-1.342;2022-07-03T04:23:40;100472.10;;;11.91;29.80
63339;BME280;47485;51.378;-1.342;2022-07-03T04:26:07;100476.56;;;9.80;30.68
63339;BME280;47485;51.378;-1.342;2022-07-03T04:28:34;100475.92;;;9.71;30.28
63339;BME280;47485;51.378;-1.342;2022-07-03T04:31:01;100478.85;;;12.02;28.56
63339;BME280;47485;51.378;-1.342;2022-07-03T04:33:28;100477.35;;;13.42;26.56
63339;BME280;47485;51.378;-1.342;2022-07-03T04:35:54;100479.31;;;11.86;27.19
63339;BME280;47485;51.378;-1.342;2022-07-03T04:38:22;100481.02;;;15.76;25.19
63339;BME280;47485;51.378;-1.342;2022-07-03T04:40:49;100482.75;;;15.35;26.40
63339;BME280;47485;51.378;-1.342;2022-07-03T04:43:16;100482.87;;;11.97;28.86
63339;BME280;47485;51.378;-1.342;2022-07-03T04:45:42;100484.16;;;11.87;29.08
63339;BME280;47485;51.378;-1.342;2022-07-03T04:48:09;100482.11;;;12.61;28.44
63339;BME280;47485;51.378;-1.342;2022-07-03T04:50:36;100477.59;;;14.41;26.40
63339;BME280;47485;51.378;-1.342;2022-07-03T04:53:03;100479.23;;;13.80;27.68
63339;BME280;47485;51.378;-1.342;2022-07-03T04:55:29;100476.09;;;11.58;27.63
63339;BME280;47485;51.378;-1.342;2022-07-03T04:57:56;100472.52;;;15.12;25.93
63339;BME280;47485;51.378;-1.342;2022-07-03T05:00:23;100470.15;;;14.61;26.35
63339;BME280;47485;51.378;-1.342;2022-07-03T05:02:50;100477.87;;;16.05;27.74
63339;BME280;47485;51.378;-1.342;2022-07-03T05:05:17;100477.73;;;14.21;29.80
63339;BME280;47485;51.378;-1.342;2022-07-03T05:07:45;100482.35;;;14.48;30.66
63339;BME280;47485;51.378;-1.342;2022-07-03T05:10:12;100486.38;;;12.08;32.52
63339;BME280;47485;51.378;-1.342;2022-07-03T05:12:39;100488.07;;;13.39;31.94
63339;BME280;47485;51.378;-1.342;2022-07-03T05:15:08;100491.40;;;12.61;31.91
63339;BME280;47485;51.378;-1.342;2022-07-03T05:17:35;100487.37;;;12.40;31.31
63339;BME280;47485;51.378;-1.342;2022-07-03T05:20:03;100485.33;;;13.24;30.60
63339;BME280;47485;51.378;-1.342;2022-07-03T05:22:30;100493.25;;;14.24;32.08
63339;BME280;47485;51.378;-1.342;2022-07-03T05:24:57;100491.70;;;12.61;33.39
63339;BME280;47485;51.378;-1.342;2022-07-03T05:27:24;100490.07;;;11.68;33.48
63339;BME280;47485;51.378;-1.342;2022-07-03T05:29:50;100495.09;;;11.94;32.54
63339;BME280;47485;51.378;-1.342;2022-07-03T05:32:17;100496.50;;;12.77;32.21
63339;BME280;47485;51.378;-1.342;2022-07-03T05:34:44;100496.47;;;12.88;33.28
63339;BME280;47485;51.378;-1.342;2022-07-03T05:37:11;100500.48;;;10.34;36.55
63339;BME280;47485;51.378;-1.342;2022-07-03T05:39:37;100501.38;;;10.68;37.52
63339;BME280;47485;51.378;-1.342;2022-07-03T05:42:04;100501.05;;;11.01;37.40
63339;BME280;47485;51.378;-1.342;2022-07-03T05:44:31;100496.73;;;12.23;36.07
63339;BME280;47485;51.378;-1.342;2022-07-03T05:46:58;100493.07;;;11.70;36.11
63339;BME280;47485;51.378;-1.342;2022-07-03T05:49:25;100496.18;;;11.88;37.13
63339;BME280;47485;51.378;-1.342;2022-07-03T05:51:52;100498.48;;;10.04;39.22
63339;BME280;47485;51.378;-1.342;2022-07-03T05:54:18;100497.67;;;11.01;39.39
63339;BME280;47485;51.378;-1.342;2022-07-03T05:56:45;100491.17;;;12.00;37.62
63339;BME280;47485;51.378;-1.342;2022-07-03T05:59:12;100490.43;;;11.30;37.96
63339;BME280;47485;51.378;-1.342;2022-07-03T06:01:38;100493.34;;;11.45;37.93
63339;BME280;47485;51.378;-1.342;2022-07-03T06:04:05;100496.29;;;10.89;39.16
63339;BME280;47485;51.378;-1.342;2022-07-03T06:06:32;100494.93;;;10.63;39.53
63339;BME280;47485;51.378;-1.342;2022-07-03T06:08:59;100495.54;;;12.90;37.71
63339;BME280;47485;51.378;-1.342;2022-07-03T06:15:49;100501.47;;;12.68;38.65
63339;BME280;47485;51.378;-1.342;2022-07-03T06:18:16;100497.66;;;12.09;37.74
63339;BME280;47485;51.378;-1.342;2022-07-03T06:20:43;100495.51;;;12.34;36.76
63339;BME280;47485;51.378;-1.342;2022-07-03T06:23:09;100497.51;;;12.57;35.92
63339;BME280;47485;51.378;-1.342;2022-07-03T06:25:36;100502.16;;;12.58;35.17
63339;BME280;47485;51.378;-1.342;2022-07-03T06:28:03;100495.14;;;12.82;33.60
63339;BME280;47485;51.378;-1.342;2022-07-03T06:30:31;100501.11;;;13.24;35.75
63339;BME280;47485;51.378;-1.342;2022-07-03T06:32:57;100504.59;;;10.59;37.84
63339;BME280;47485;51.378;-1.342;2022-07-03T06:35:24;100510.98;;;10.46;40.50
63339;BME280;47485;51.378;-1.342;2022-07-03T06:37:51;100507.84;;;11.95;39.25
63339;BME280;47485;51.378;-1.342;2022-07-03T06:40:17;100512.39;;;10.18;40.36
63339;BME280;47485;51.378;-1.342;2022-07-03T06:42:44;100508.55;;;11.68;39.38
63339;BME280;47485;51.378;-1.342;2022-07-03T06:45:11;100513.87;;;12.58;40.29
63339;BME280;47485;51.378;-1.342;2022-07-03T06:47:38;100513.56;;;13.20;39.07
63339;BME280;47485;51.378;-1.342;2022-07-03T06:50:05;100516.07;;;11.29;39.46
63339;BME280;47485;51.378;-1.342;2022-07-03T06:52:33;100515.64;;;12.97;37.18
63339;BME280;47485;51.378;-1.342;2022-07-03T06:54:59;100514.06;;;11.08;37.61
63339;BME280;47485;51.378;-1.342;2022-07-03T06:57:26;100512.53;;;10.50;37.92
63339;BME280;47485;51.378;-1.342;2022-07-03T06:59:53;100513.91;;;12.88;34.99
63339;BME280;47485;51.378;-1.342;2022-07-03T07:02:20;100515.10;;;12.74;36.80
63339;BME280;47485;51.378;-1.342;2022-07-03T07:04:47;100515.48;;;11.08;38.08
63339;BME280;47485;51.378;-1.342;2022-07-03T07:07:14;100518.91;;;10.98;39.77
63339;BME280;47485;51.378;-1.342;2022-07-03T07:09:41;100521.71;;;10.48;40.91
63339;BME280;47485;51.378;-1.342;2022-07-03T07:12:08;100520.43;;;11.46;41.04
63339;BME280;47485;51.378;-1.342;2022-07-03T07:14:35;100521.92;;;9.91;42.23
63339;BME280;47485;51.378;-1.342;2022-07-03T07:17:02;100523.19;;;10.88;41.80
63339;BME280;47485;51.378;-1.342;2022-07-03T07:19:28;100525.42;;;11.06;41.63
63339;BME280;47485;51.378;-1.342;2022-07-03T07:21:55;100529.55;;;8.62;42.97
63339;BME280;47485;51.378;-1.342;2022-07-03T07:24:23;100537.56;;;10.27;45.27
63339;BME280;47485;51.378;-1.342;2022-07-03T07:26:49;100536.16;;;8.99;44.17
63339;BME280;47485;51.378;-1.342;2022-07-03T07:29:16;100538.83;;;11.39;41.09
63339;BME280;47485;51.378;-1.342;2022-07-03T07:31:43;100537.41;;;11.84;40.27
63339;BME280;47485;51.378;-1.342;2022-07-03T07:34:09;100543.35;;;10.76;40.86
63339;BME280;47485;51.378;-1.342;2022-07-03T07:36:36;100546.42;;;8.31;41.82
63339;BME280;47485;51.378;-1.342;2022-07-03T07:39:02;100549.74;;;10.28;40.07
63339;BME280;47485;51.378;-1.342;2022-07-03T07:41:30;100549.27;;;11.30;38.93
63339;BME280;47485;51.378;-1.342;2022-07-03T07:43:57;100557.85;;;12.09;40.86
63339;BME280;47485;51.378;-1.342;2022-07-03T07:46:25;100557.96;;;10.16;41.17
63339;BME280;47485;51.378;-1.342;2022-07-03T07:48:52;100556.51;;;11.07;40.32
63339;BME280;47485;51.378;-1.342;2022-07-03T07:51:20;100557.84;;;9.87;41.04
63339;BME280;47485;51.378;-1.342;2022-07-03T07:53:47;100554.07;;;8.26;40.14
63339;BME280;47485;51.378;-1.342;2022-07-03T07:56:14;100551.29;;;11.67;35.40
63339;BME280;47485;51.378;-1.342;2022-07-03T07:58:41;100553.87;;;13.96;34.72
63339;BME280;47485;51.378;-1.342;2022-07-03T08:01:08;100556.28;;;12.04;37.81
63339;BME280;47485;51.378;-1.342;2022-07-03T08:03:34;100560.58;;;11.98;40.17
63339;BME280;47485;51.378;-1.342;2022-07-03T08:06:01;100565.61;;;11.67;42.43
63339;BME280;47485;51.378;-1.342;2022-07-03T08:08:28;100566.95;;;11.59;41.44
63339;BME280;47485;51.378;-1.342;2022-07-03T08:10:54;100565.95;;;10.45;43.87
63339;BME280;47485;51.378;-1.342;2022-07-03T08:13:22;100569.14;;;10.25;45.54
63339;BME280;47485;51.378;-1.342;2022-07-03T08:15:49;100569.47;;;10.44;45.04
63339;BME280;47485;51.378;-1.342;2022-07-03T08:18:16;100568.56;;;11.11;43.06
63339;BME280;47485;51.378;-1.342;2022-07-03T08:20:42;100573.96;;;10.73;41.71
63339;BME280;47485;51.378;-1.342;2022-07-03T08:23:09;100572.87;;;9.93;42.78
63339;BME280;47485;51.378;-1.342;2022-07-03T08:25:36;100575.03;;;10.48;44.18
63339;BME280;47485;51.378;-1.342;2022-07-03T08:28:04;100572.08;;;11.05;42.89
63339;BME280;47485;51.378;-1.342;2022-07-03T08:30:30;100573.80;;;10.38;42.45
63339;BME280;47485;51.378;-1.342;2022-07-03T08:32:58;100578.47;;;11.35;43.30
63339;BME280;47485;51.378;-1.342;2022-07-03T08:35:25;100576.77;;;10.77;43.16
63339;BME280;47485;51.378;-1.342;2022-07-03T08:37:52;100569.54;;;10.19;41.78
63339;BME280;47485;51.378;-1.342;2022-07-03T08:40:21;100571.66;;;10.54;42.32
63339;BME280;47485;51.378;-1.342;2022-07-03T08:42:49;100573.78;;;10.36;43.24
63339;BME280;47485;51.378;-1.342;2022-07-03T08:45:20;100570.62;;;11.23;42.51
63339;BME280;47485;51.378;-1.342;2022-07-03T08:47:48;100574.07;;;10.92;41.13
63339;BME280;47485;51.378;-1.342;2022-07-03T08:50:17;100568.28;;;11.33;40.75
63339;BME280;47485;51.378;-1.342;2022-07-03T08:52:45;100564.48;;;12.92;38.37
63339;BME280;47485;51.378;-1.342;2022-07-03T08:55:13;100566.44;;;12.42;38.84
63339;BME280;47485;51.378;-1.342;2022-07-03T08:57:42;100558.62;;;11.96;37.62
63339;BME280;47485;51.378;-1.342;2022-07-03T09:00:12;100558.95;;;11.76;38.12
63339;BME280;47485;51.378;-1.342;2022-07-03T09:02:40;100557.92;;;11.69;38.12
63339;BME280;47485;51.378;-1.342;2022-07-03T09:05:10;100553.43;;;13.37;35.79
63339;BME280;47485;51.378;-1.342;2022-07-03T09:07:40;100555.07;;;11.63;36.89
63339;BME280;47485;51.378;-1.342;2022-07-03T09:10:09;100556.53;;;12.22;35.95
63339;BME280;47485;51.378;-1.342;2022-07-03T09:12:36;100561.53;;;13.36;37.16
63339;BME280;47485;51.378;-1.342;2022-07-03T09:15:06;100555.77;;;12.75;35.89
63339;BME280;47485;51.378;-1.342;2022-07-03T09:17:33;100559.53;;;12.06;36.64
63339;BME280;47485;51.378;-1.342;2022-07-03T09:20:03;100558.45;;;13.40;35.32
63339;BME280;47485;51.378;-1.342;2022-07-03T09:22:32;100555.43;;;14.27;34.46
63339;BME280;47485;51.378;-1.342;2022-07-03T09:25:04;100555.69;;;13.20;33.82
63339;BME280;47485;51.378;-1.342;2022-07-03T09:27:31;100555.10;;;12.59;31.99
63339;BME280;47485;51.378;-1.342;2022-07-03T09:29:59;100550.86;;;14.00;32.03
63339;BME280;47485;51.378;-1.342;2022-07-03T09:32:31;100553.70;;;16.30;31.68
63339;BME280;47485;51.378;-1.342;2022-07-03T09:35:31;100555.45;;;14.13;34.87
63339;BME280;47485;51.378;-1.342;2022-07-03T09:37:59;100564.52;;;13.55;35.79
63339;BME280;47485;51.378;-1.342;2022-07-03T09:40:28;100565.60;;;13.09;34.41
63339;BME280;47485;51.378;-1.342;2022-07-03T09:43:12;100565.70;;;13.91;34.88
63339;BME280;47485;51.378;-1.342;2022-07-03T09:45:55;100569.11;;;12.91;33.94
63339;BME280;47485;51.378;-1.342;2022-07-03T09:48:25;100568.56;;;13.01;34.14
63339;BME280;47485;51.378;-1.342;2022-07-03T09:51:12;100564.58;;;14.49;31.42
63339;BME280;47485;51.378;-1.342;2022-07-03T09:53:56;100566.66;;;14.14;29.53
63339;BME280;47485;51.378;-1.342;2022-07-03T09:56:25;100561.50;;;15.86;27.96
63339;BME280;47485;51.378;-1.342;2022-07-03T09:59:10;100566.65;;;15.90;29.85
63339;BME280;47485;51.378;-1.342;2022-07-03T10:01:39;100569.08;;;14.69;33.71
63339;BME280;47485;51.378;-1.342;2022-07-03T10:04:11;100570.55;;;12.23;36.67
63339;BME280;47485;51.378;-1.342;2022-07-03T10:06:56;100574.60;;;11.74;37.36
63339;BME280;47485;51.378;-1.342;2022-07-03T10:09:25;100577.26;;;12.71;38.54
63339;BME280;47485;51.378;-1.342;2022-07-03T10:11:53;100578.36;;;12.64;36.71
63339;BME280;47485;51.378;-1.342;2022-07-03T10:14:23;100574.96;;;13.23;33.92
63339;BME280;47485;51.378;-1.342;2022-07-03T10:16:51;100577.97;;;14.43;30.51
63339;BME280;47485;51.378;-1.342;2022-07-03T10:19:19;100581.04;;;14.96;30.84
63339;BME280;47485;51.378;-1.342;2022-07-03T10:21:51;100578.93;;;14.76;31.00
63339;BME280;47485;51.378;-1.342;2022-07-03T10:24:22;100574.54;;;14.03;30.67
63339;BME280;47485;51.378;-1.342;2022-07-03T10:26:50;100574.99;;;13.93;28.64
63339;BME280;47485;51.378;-1.342;2022-07-03T10:29:17;100572.91;;;15.89;27.75
63339;BME280;47485;51.378;-1.342;2022-07-03T10:31:45;100574.48;;;14.06;27.96
63339;BME280;47485;51.378;-1.342;2022-07-03T10:34:15;100578.53;;;14.37;29.57
63339;BME280;47485;51.378;-1.342;2022-07-03T10:36:43;100581.74;;;14.43;30.80
63339;BME280;47485;51.378;-1.342;2022-07-03T10:39:20;100583.25;;;13.45;32.55
63339;BME280;47485;51.378;-1.342;2022-07-03T10:41:50;100588.98;;;13.11;33.55
63339;BME280;47485;51.378;-1.342;2022-07-03T10:44:21;100587.28;;;14.29;32.42
63339;BME280;47485;51.378;-1.342;2022-07-03T10:46:48;100587.33;;;13.52;31.93
63339;BME280;47485;51.378;-1.342;2022-07-03T10:49:15;100587.58;;;13.59;30.83
63339;BME280;47485;51.378;-1.342;2022-07-03T10:51:53;100583.04;;;13.55;29.63
63339;BME280;47485;51.378;-1.342;2022-07-03T10:54:22;100581.92;;;15.04;27.92
63339;BME280;47485;51.378;-1.342;2022-07-03T10:57:23;100582.30;;;15.27;28.02
63339;BME280;47485;51.378;-1.342;2022-07-03T11:00:12;100581.75;;;15.87;28.39
63339;BME280;47485;51.378;-1.342;2022-07-03T11:02:40;100580.89;;;16.34;28.42
63339;BME280;47485;51.378;-1.342;2022-07-03T11:05:16;100579.18;;;14.57;27.82
63339;BME280;47485;51.378;-1.342;2022-07-03T11:08:05;100574.72;;;15.66;25.79
63339;BME280;47485;51.378;-1.342;2022-07-03T11:10:36;100578.20;;;16.57;25.96
63339;BME280;47485;51.378;-1.342;2022-07-03T11:13:05;100579.39;;;16.10;25.56
63339;BME280;47485;51.378;-1.342;2022-07-03T11:15:34;100583.33;;;14.22;27.07
63339;BME280;47485;51.378;-1.342;2022-07-03T11:18:12;100583.99;;;14.61;28.02
63339;BME280;47485;51.378;-1.342;2022-07-03T11:21:30;100583.56;;;15.06;27.90
63339;BME280;47485;51.378;-1.342;2022-07-03T11:24:10;100581.16;;;15.34;26.73
63339;BME280;47485;51.378;-1.342;2022-07-03T11:26:41;100574.61;;;15.89;26.22
63339;BME280;47485;51.378;-1.342;2022-07-03T11:29:26;100574.38;;;15.19;27.01
63339;BME280;47485;51.378;-1.342;2022-07-03T11:31:53;100581.36;;;15.07;27.55
63339;BME280;47485;51.378;-1.342;2022-07-03T11:34:21;100586.07;;;13.35;29.96
63339;BME280;47485;51.378;-1.342;2022-07-03T11:36:47;100584.73;;;15.16;29.53
63339;BME280;47485;51.378;-1.342;2022-07-03T11:39:19;100589.07;;;14.94;28.47
63339;BME280;47485;51.378;-1.342;2022-07-03T11:41:46;100586.74;;;14.89;27.89
63339;BME280;47485;51.378;-1.342;2022-07-03T11:44:17;100591.48;;;13.95;28.94
63339;BME280;47485;51.378;-1.342;2022-07-03T11:46:49;100587.70;;;14.59;29.27
63339;BME280;47485;51.378;-1.342;2022-07-03T11:49:17;100583.63;;;15.87;28.00
63339;BME280;47485;51.378;-1.342;2022-07-03T11:51:55;100578.61;;;17.15;25.84
63339;BME280;47485;51.378;-1.342;2022-07-03T11:54:23;100578.53;;;15.34;23.61
63339;BME280;47485;51.378;-1.342;2022-07-03T11:56:50;100578.81;;;17.87;22.46
63339;BME280;47485;51.378;-1.342;2022-07-03T11:59:17;100576.84;;;16.95;23.95
63339;BME280;47485;51.378;-1.342;2022-07-03T12:01:45;100583.98;;;18.80;21.99
63339;BME280;47485;51.378;-1.342;2022-07-03T12:04:13;100578.24;;;17.37;23.29
63339;BME280;47485;51.378;-1.342;2022-07-03T12:06:41;100578.95;;;18.27;23.30
63339;BME280;47485;51.378;-1.342;2022-07-03T12:09:14;100583.43;;;15.55;25.33
63339;BME280;47485;51.378;-1.342;2022-07-03T12:11:40;100575.22;;;15.33;23.60
63339;BME280;47485;51.378;-1.342;2022-07-03T12:14:07;100566.74;;;16.94;23.32
63339;BME280;47485;51.378;-1.342;2022-07-03T12:16:34;100563.15;;;17.29;21.66
63339;BME280;47485;51.378;-1.342;2022-07-03T12:19:04;100568.61;;;15.95;23.87
63339;BME280;47485;51.378;-1.342;2022-07-03T12:21:37;100568.54;;;16.68;23.44
63339;BME280;47485;51.378;-1.342;2022-07-03T12:24:10;100565.47;;;16.90;22.80
63339;BME280;47485;51.378;-1.342;2022-07-03T12:26:37;100561.76;;;16.80;24.04
63339;BME280;47485;51.378;-1.342;2022-07-03T12:29:06;100560.57;;;16.53;23.15
63339;BME280;47485;51.378;-1.342;2022-07-03T12:31:34;100563.36;;;17.56;21.45
63339;BME280;47485;51.378;-1.342;2022-07-03T12:34:02;100569.86;;;17.14;23.12
63339;BME280;47485;51.378;-1.342;2022-07-03T12:36:28;100567.74;;;18.37;23.15
63339;BME280;47485;51.378;-1.342;2022-07-03T12:38:56;100567.21;;;14.91;23.01
63339;BME280;47485;51.378;-1.342;2022-07-03T12:41:24;100566.90;;;18.36;21.07
63339;BME280;47485;51.378;-1.342;2022-07-03T12:43:53;100571.10;;;18.24;21.83
63339;BME280;47485;51.378;-1.342;2022-07-03T12:46:22;100570.90;;;18.33;21.53
63339;BME280;47485;51.378;-1.342;2022-07-03T12:48:50;100573.08;;;16.47;23.93
63339;BME280;47485;51.378;-1.342;2022-07-03T12:51:38;100577.87;;;15.60;24.89
63339;BME280;47485;51.378;-1.342;2022-07-03T12:54:05;100573.78;;;16.10;25.96
63339;BME280;47485;51.378;-1.342;2022-07-03T12:56:32;100577.40;;;15.15;29.22
63339;BME280;47485;51.378;-1.342;2022-07-03T12:58:59;100582.41;;;14.06;31.81